sensor_id;sensor_type;location;lat;lon;timestamp;pressure;altitude;pressure_sealevel;temperature;humidity
10127;BME280;13080;42.608;23.362;2023-03-20T00:01:08;152113.53;;;4.00;68.55
10127;BME280;13080;42.608;23.362;2023-03-20T00:03:36;152108.38;;;3.98;68.70
10127;BME280;13080;42.608;23.362;2023-03-20T00:06:03;152098.03;;;3.93;68.42
10127;BME280;13080;42.608;23.362;2023-03-20T00:08:29;152085.13;;;3.88;69.25
10127;BME280;13080;42.608;23.362;2023-03-20T00:10:58;152077.34;;;3.85;69.05
10127;BME280;13080;42.608;23.362;2023-03-20T00:13:25;152067.03;;;3.81;68.92
10127;BME280;13080;42.608;23.362;2023-03-20T00:15:53;152070.88;;;3.83;69.54
10127;BME280;13080;42.608;23.362;2023-03-20T00:18:21;152061.88;;;3.79;69.78
10127;BME280;13080;42.608;23.362;2023-03-20T00:20:50;152054.09;;;3.76;70.04
10127;BME280;13080;42.608;23.362;2023-03-20T00:23:18;152052.81;;;3.75;70.34
10127;BME280;13080;42.608;23.362;2023-03-20T00:25:45;152039.91;;;3.70;71.04
10127;BME280;13080;42.608;23.362;2023-03-20T00:28:36;152032.13;;;3.67;70.90
10127;BME280;13080;42.608;23.362;2023-03-20T00:31:14;152015.31;;;3.61;71.36
10127;BME280;13080;42.608;23.362;2023-03-20T00:33:43;152021.81;;;3.63;70.93
10127;BME280;13080;42.608;23.362;2023-03-20T00:36:10;152020.50;;;3.63;70.83
10127;BME280;13080;42.608;23.362;2023-03-20T00:38:37;152042.47;;;3.71;70.77
10127;BME280;13080;42.608;23.362;2023-03-20T00:41:17;152026.94;;;3.65;70.48
10127;BME280;13080;42.608;23.362;2023-03-20T00:43:48;152026.94;;;3.65;70.32
10127;BME280;13080;42.608;23.362;2023-03-20T00:46:17;152030.84;;;3.67;71.23
10127;BME280;13080;42.608;23.362;2023-03-20T00:48:44;152001.16;;;3.55;72.41
10127;BME280;13080;42.608;23.362;2023-03-20T00:51:12;151986.91;;;3.49;72.93
10127;BME280;13080;42.608;23.362;2023-03-20T00:53:38;151975.28;;;3.45;73.39
10127;BME280;13080;42.608;23.362;2023-03-20T00:56:06;151976.63;;;3.45;72.86
10127;BME280;13080;42.608;23.362;2023-03-20T00:58:34;151966.28;;;3.41;72.96
10127;BME280;13080;42.608;23.362;2023-03-20T01:01:03;151955.94;;;3.37;73.30
10127;BME280;13080;42.608;23.362;2023-03-20T01:03:30;151958.50;;;3.38;73.79
10127;BME280;13080;42.608;23.362;2023-03-20T01:05:57;151958.50;;;3.38;73.03
10127;BME280;13080;42.608;23.362;2023-03-20T01:08:24;151964.94;;;3.41;72.61
10127;BME280;13080;42.608;23.362;2023-03-20T01:10:53;151958.50;;;3.38;72.34
10127;BME280;13080;42.608;23.362;2023-03-20T01:13:23;151950.78;;;3.35;72.15
10127;BME280;13080;42.608;23.362;2023-03-20T01:15:51;151952.06;;;3.36;72.18
10127;BME280;13080;42.608;23.362;2023-03-20T01:18:20;151948.16;;;3.34;72.28
10127;BME280;13080;42.608;23.362;2023-03-20T01:20:48;151944.31;;;3.32;72.19
10127;BME280;13080;42.608;23.362;2023-03-20T01:23:18;151945.59;;;3.33;72.35
10127;BME280;13080;42.608;23.362;2023-03-20T01:25:44;151944.31;;;3.32;72.55
10127;BME280;13080;42.608;23.362;2023-03-20T01:28:14;151930.09;;;3.27;72.61
10127;BME280;13080;42.608;23.362;2023-03-20T01:30:43;151926.25;;;3.25;72.77
10127;BME280;13080;42.608;23.362;2023-03-20T01:33:14;151932.69;;;3.28;73.03
10127;BME280;13080;42.608;23.362;2023-03-20T01:35:43;151927.53;;;3.26;72.63
10127;BME280;13080;42.608;23.362;2023-03-20T01:38:12;151924.91;;;3.25;72.62
10127;BME280;13080;42.608;23.362;2023-03-20T01:40:50;151915.91;;;3.21;72.69
10127;BME280;13080;42.608;23.362;2023-03-20T01:43:20;151923.66;;;3.24;73.92
10127;BME280;13080;42.608;23.362;2023-03-20T01:45:54;151926.25;;;3.25;73.23
10127;BME280;13080;42.608;23.362;2023-03-20T01:48:25;151919.75;;;3.23;73.13
10127;BME280;13080;42.608;23.362;2023-03-20T01:50:54;151908.13;;;3.18;73.16
10127;BME280;13080;42.608;23.362;2023-03-20T01:53:23;151917.19;;;3.22;72.73
10127;BME280;13080;42.608;23.362;2023-03-20T01:55:53;151923.66;;;3.24;73.10
10127;BME280;13080;42.608;23.362;2023-03-20T01:58:24;151909.47;;;3.19;73.24
10127;BME280;13080;42.608;23.362;2023-03-20T02:00:52;151910.75;;;3.19;72.99
10127;BME280;13080;42.608;23.362;2023-03-20T02:03:19;151905.56;;;3.17;72.62
10127;BME280;13080;42.608;23.362;2023-03-20T02:05:47;151901.69;;;3.16;73.08
10127;BME280;13080;42.608;23.362;2023-03-20T02:08:22;151899.13;;;3.15;72.98
10127;BME280;13080;42.608;23.362;2023-03-20T02:10:49;151919.75;;;3.23;73.07
10127;BME280;13080;42.608;23.362;2023-03-20T02:13:17;151905.56;;;3.17;73.21
10127;BME280;13080;42.608;23.362;2023-03-20T02:16:00;151901.69;;;3.16;72.90
10127;BME280;13080;42.608;23.362;2023-03-20T02:18:27;151891.34;;;3.11;73.01
10127;BME280;13080;42.608;23.362;2023-03-20T02:27:13;151850.06;;;2.95;73.36
10127;BME280;13080;42.608;23.362;2023-03-20T02:30:09;151842.31;;;2.92;73.88
10127;BME280;13080;42.608;23.362;2023-03-20T02:36:29;151816.47;;;2.82;75.28
10127;BME280;13080;42.608;23.362;2023-03-20T02:39:28;151808.75;;;2.79;75.29
10127;BME280;13080;42.608;23.362;2023-03-20T02:42:03;151811.31;;;2.80;75.67
10127;BME280;13080;42.608;23.362;2023-03-20T02:44:39;151790.69;;;2.72;76.11
10127;BME280;13080;42.608;23.362;2023-03-20T02:47:13;151775.19;;;2.65;76.87
10127;BME280;13080;42.608;23.362;2023-03-20T02:49:53;151753.25;;;2.57;77.49
10127;BME280;13080;42.608;23.362;2023-03-20T02:52:26;151728.75;;;2.47;77.14
10127;BME280;13080;42.608;23.362;2023-03-20T02:55:09;151733.91;;;2.49;77.23
10127;BME280;13080;42.608;23.362;2023-03-20T02:57:43;151728.75;;;2.47;77.47
10127;BME280;13080;42.608;23.362;2023-03-20T03:00:16;151719.69;;;2.43;76.98
10127;BME280;13080;42.608;23.362;2023-03-20T03:02:49;151722.31;;;2.44;76.75
10127;BME280;13080;42.608;23.362;2023-03-20T03:05:20;151724.84;;;2.45;77.68
10127;BME280;13080;42.608;23.362;2023-03-20T03:07:50;151726.13;;;2.46;77.21
10127;BME280;13080;42.608;23.362;2023-03-20T03:10:22;151730.03;;;2.47;77.29
10127;BME280;13080;42.608;23.362;2023-03-20T03:12:52;151730.03;;;2.47;78.38
10127;BME280;13080;42.608;23.362;2023-03-20T03:15:26;151739.03;;;2.51;78.21
10127;BME280;13080;42.608;23.362;2023-03-20T03:17:56;151766.16;;;2.62;77.91
10127;BME280;13080;42.608;23.362;2023-03-20T03:20:27;151760.97;;;2.60;77.06
10127;BME280;13080;42.608;23.362;2023-03-20T03:22:55;151757.13;;;2.58;77.44
10127;BME280;13080;42.608;23.362;2023-03-20T03:25:26;151770.03;;;2.63;77.32
10127;BME280;13080;42.608;23.362;2023-03-20T03:28:02;151777.75;;;2.66;76.62
10127;BME280;13080;42.608;23.362;2023-03-20T03:30:31;151777.75;;;2.66;76.21
10127;BME280;13080;42.608;23.362;2023-03-20T03:33:12;151790.69;;;2.72;76.75
10127;BME280;13080;42.608;23.362;2023-03-20T03:35:41;151781.63;;;2.68;76.95
10127;BME280;13080;42.608;23.362;2023-03-20T03:38:20;151784.19;;;2.69;76.57
10127;BME280;13080;42.608;23.362;2023-03-20T03:41:03;151790.69;;;2.72;76.52
10127;BME280;13080;42.608;23.362;2023-03-20T03:43:35;151779.09;;;2.67;77.09
10127;BME280;13080;42.608;23.362;2023-03-20T03:46:09;151776.47;;;2.66;77.02
10127;BME280;13080;42.608;23.362;2023-03-20T03:48:42;151781.63;;;2.68;77.60
10127;BME280;13080;42.608;23.362;2023-03-20T03:51:10;151763.59;;;2.61;77.97
10127;BME280;13080;42.608;23.362;2023-03-20T03:53:43;151742.91;;;2.53;79.11
10127;BME280;13080;42.608;23.362;2023-03-20T03:56:16;151737.75;;;2.50;78.55
10127;BME280;13080;42.608;23.362;2023-03-20T03:58:47;151733.91;;;2.49;78.52
10127;BME280;13080;42.608;23.362;2023-03-20T04:01:17;151741.63;;;2.52;78.34
10127;BME280;13080;42.608;23.362;2023-03-20T04:03:48;151731.31;;;2.48;78.79
10127;BME280;13080;42.608;23.362;2023-03-20T04:06:17;151723.59;;;2.45;78.04
10127;BME280;13080;42.608;23.362;2023-03-20T04:08:44;151727.41;;;2.46;78.46
10127;BME280;13080;42.608;23.362;2023-03-20T04:11:15;151711.97;;;2.40;78.41
10127;BME280;13080;42.608;23.362;2023-03-20T04:13:43;151711.97;;;2.40;78.67
10127;BME280;13080;42.608;23.362;2023-03-20T04:16:11;151711.97;;;2.40;78.95
10127;BME280;13080;42.608;23.362;2023-03-20T04:18:40;151710.66;;;2.40;79.60
10127;BME280;13080;42.608;23.362;2023-03-20T04:21:07;151714.53;;;2.41;79.68
10127;BME280;13080;42.608;23.362;2023-03-20T04:23:35;151714.53;;;2.41;79.18
10127;BME280;13080;42.608;23.362;2023-03-20T04:26:02;151708.09;;;2.39;79.21
10127;BME280;13080;42.608;23.362;2023-03-20T04:28:30;151704.19;;;2.37;79.65
10127;BME280;13080;42.608;23.362;2023-03-20T04:30:58;151709.38;;;2.39;80.14
10127;BME280;13080;42.608;23.362;2023-03-20T04:33:26;151717.13;;;2.42;79.88
10127;BME280;13080;42.608;23.362;2023-03-20T04:35:53;151718.41;;;2.43;80.02
10127;BME280;13080;42.608;23.362;2023-03-20T04:38:21;151731.31;;;2.48;79.81
10127;BME280;13080;42.608;23.362;2023-03-20T04:40:48;151744.19;;;2.53;79.79
10127;BME280;13080;42.608;23.362;2023-03-20T04:43:15;151762.31;;;2.60;79.23
10127;BME280;13080;42.608;23.362;2023-03-20T04:45:43;151781.63;;;2.68;78.46
10127;BME280;13080;42.608;23.362;2023-03-20T04:48:10;151804.88;;;2.77;78.58
10127;BME280;13080;42.608;23.362;2023-03-20T04:50:37;151807.47;;;2.78;78.84
10127;BME280;13080;42.608;23.362;2023-03-20T04:53:04;151820.38;;;2.83;79.32
10127;BME280;13080;42.608;23.362;2023-03-20T04:55:31;151830.72;;;2.87;79.58
10127;BME280;13080;42.608;23.362;2023-03-20T04:57:57;151830.72;;;2.87;79.67
10127;BME280;13080;42.608;23.362;2023-03-20T05:00:24;151841.03;;;2.91;79.89
10127;BME280;13080;42.608;23.362;2023-03-20T05:02:52;151839.72;;;2.91;78.45
10127;BME280;13080;42.608;23.362;2023-03-20T05:05:19;151850.06;;;2.95;78.04
10127;BME280;13080;42.608;23.362;2023-03-20T05:07:46;151855.22;;;2.97;76.97
10127;BME280;13080;42.608;23.362;2023-03-20T05:10:13;151861.66;;;3.00;76.76
10127;BME280;13080;42.608;23.362;2023-03-20T05:12:40;151864.28;;;3.01;76.29
10127;BME280;13080;42.608;23.362;2023-03-20T05:15:08;151882.34;;;3.08;76.18
10127;BME280;13080;42.608;23.362;2023-03-20T05:17:35;151908.13;;;3.18;76.62
10127;BME280;13080;42.608;23.362;2023-03-20T05:20:04;151914.63;;;3.21;76.84
10127;BME280;13080;42.608;23.362;2023-03-20T05:22:31;151922.38;;;3.24;76.85
10127;BME280;13080;42.608;23.362;2023-03-20T05:24:58;151931.41;;;3.27;76.79
10127;BME280;13080;42.608;23.362;2023-03-20T05:27:26;151943.03;;;3.32;76.57
10127;BME280;13080;42.608;23.362;2023-03-20T05:29:53;151975.28;;;3.45;75.21
10127;BME280;13080;42.608;23.362;2023-03-20T05:32:19;151995.97;;;3.53;74.84
10127;BME280;13080;42.608;23.362;2023-03-20T05:34:46;152025.66;;;3.65;75.58
10127;BME280;13080;42.608;23.362;2023-03-20T05:37:14;152036.00;;;3.69;75.93
10127;BME280;13080;42.608;23.362;2023-03-20T05:39:41;152024.38;;;3.64;76.47
10127;BME280;13080;42.608;23.362;2023-03-20T05:42:08;152042.47;;;3.71;76.61
10127;BME280;13080;42.608;23.362;2023-03-20T05:44:34;152041.19;;;3.71;76.53
10127;BME280;13080;42.608;23.362;2023-03-20T05:47:01;152077.34;;;3.85;76.78
10127;BME280;13080;42.608;23.362;2023-03-20T05:49:28;152100.59;;;3.94;76.47
10127;BME280;13080;42.608;23.362;2023-03-20T05:51:55;152120.00;;;4.02;75.85
10127;BME280;13080;42.608;23.362;2023-03-20T05:54:23;152150.97;;;4.14;75.26
10127;BME280;13080;42.608;23.362;2023-03-20T05:56:50;152176.84;;;4.25;74.40
10127;BME280;13080;42.608;23.362;2023-03-20T05:59:16;152209.16;;;4.37;73.63
10127;BME280;13080;42.608;23.362;2023-03-20T06:01:43;152242.78;;;4.51;73.10
10127;BME280;13080;42.608;23.362;2023-03-20T06:04:10;152268.59;;;4.61;72.84
10127;BME280;13080;42.608;23.362;2023-03-20T06:06:37;152303.50;;;4.75;72.55
10127;BME280;13080;42.608;23.362;2023-03-20T06:09:03;152337.13;;;4.88;72.42
10127;BME280;13080;42.608;23.362;2023-03-20T06:11:32;152366.91;;;5.00;71.20
10127;BME280;13080;42.608;23.362;2023-03-20T06:13:58;152421.19;;;5.21;70.57
10127;BME280;13080;42.608;23.362;2023-03-20T06:16:25;152453.53;;;5.34;69.98
10127;BME280;13080;42.608;23.362;2023-03-20T06:18:52;152467.75;;;5.40;70.77
10127;BME280;13080;42.608;23.362;2023-03-20T06:21:19;152494.91;;;5.51;69.90
10127;BME280;13080;42.608;23.362;2023-03-20T06:23:46;152538.91;;;5.68;69.71
10127;BME280;13080;42.608;23.362;2023-03-20T06:26:12;152569.94;;;5.80;69.83
10127;BME280;13080;42.608;23.362;2023-03-20T06:28:40;152568.66;;;5.80;69.12
10127;BME280;13080;42.608;23.362;2023-03-20T06:31:07;152563.47;;;5.78;69.19
10127;BME280;13080;42.608;23.362;2023-03-20T06:33:34;152599.75;;;5.92;69.36
10127;BME280;13080;42.608;23.362;2023-03-20T06:36:02;152636.00;;;6.07;68.40
10127;BME280;13080;42.608;23.362;2023-03-20T06:38:29;152668.38;;;6.19;67.97
10127;BME280;13080;42.608;23.362;2023-03-20T06:40:56;152682.59;;;6.25;67.60
10127;BME280;13080;42.608;23.362;2023-03-20T06:43:23;152695.56;;;6.30;67.97
10127;BME280;13080;42.608;23.362;2023-03-20T06:45:51;152694.25;;;6.30;69.16
10127;BME280;13080;42.608;23.362;2023-03-20T06:48:18;152739.56;;;6.48;68.52
10127;BME280;13080;42.608;23.362;2023-03-20T06:50:46;152735.72;;;6.46;68.54
10127;BME280;13080;42.608;23.362;2023-03-20T06:53:13;152779.69;;;6.63;68.10
10127;BME280;13080;42.608;23.362;2023-03-20T06:55:40;152784.88;;;6.65;68.14
10127;BME280;13080;42.608;23.362;2023-03-20T06:58:07;152809.50;;;6.75;67.45
10127;BME280;13080;42.608;23.362;2023-03-20T07:00:34;152828.91;;;6.83;67.97
10127;BME280;13080;42.608;23.362;2023-03-20T07:03:03;152857.41;;;6.94;68.12
10127;BME280;13080;42.608;23.362;2023-03-20T07:05:30;152875.53;;;7.01;67.53
10127;BME280;13080;42.608;23.362;2023-03-20T07:07:57;152906.63;;;7.14;68.17
10127;BME280;13080;42.608;23.362;2023-03-20T07:10:24;152940.31;;;7.27;66.87
10127;BME280;13080;42.608;23.362;2023-03-20T07:12:50;152966.19;;;7.37;66.37
10127;BME280;13080;42.608;23.362;2023-03-20T07:15:18;153006.34;;;7.53;67.29
10127;BME280;13080;42.608;23.362;2023-03-20T07:17:45;153038.78;;;7.66;65.63
10127;BME280;13080;42.608;23.362;2023-03-20T07:20:13;153068.56;;;7.78;65.81
10127;BME280;13080;42.608;23.362;2023-03-20T07:22:40;153089.31;;;7.86;64.91
10127;BME280;13080;42.608;23.362;2023-03-20T07:25:08;153133.41;;;8.03;63.43
10127;BME280;13080;42.608;23.362;2023-03-20T07:27:35;153141.16;;;8.06;63.19
10127;BME280;13080;42.608;23.362;2023-03-20T07:30:02;153198.19;;;8.29;63.02
10127;BME280;13080;42.608;23.362;2023-03-20T07:32:29;153203.38;;;8.31;63.17
10127;BME280;13080;42.608;23.362;2023-03-20T07:34:56;153226.78;;;8.40;61.87
10127;BME280;13080;42.608;23.362;2023-03-20T07:37:24;153235.88;;;8.44;62.01
10127;BME280;13080;42.608;23.362;2023-03-20T07:39:51;153257.91;;;8.52;62.22
10127;BME280;13080;42.608;23.362;2023-03-20T07:42:17;153313.69;;;8.74;59.93
10127;BME280;13080;42.608;23.362;2023-03-20T07:44:44;153327.94;;;8.80;59.91
10127;BME280;13080;42.608;23.362;2023-03-20T07:47:11;153351.28;;;8.89;59.39
10127;BME280;13080;42.608;23.362;2023-03-20T07:49:38;153339.59;;;8.85;59.50
10127;BME280;13080;42.608;23.362;2023-03-20T07:52:05;153356.47;;;8.91;60.31
10127;BME280;13080;42.608;23.362;2023-03-20T07:54:34;153387.63;;;9.04;58.62
10127;BME280;13080;42.608;23.362;2023-03-20T07:57:00;153383.72;;;9.02;59.26
10127;BME280;13080;42.608;23.362;2023-03-20T07:59:29;153387.63;;;9.04;60.69
10127;BME280;13080;42.608;23.362;2023-03-20T08:01:56;153414.81;;;9.14;59.06
10127;BME280;13080;42.608;23.362;2023-03-20T08:04:23;153405.78;;;9.11;58.15
10127;BME280;13080;42.608;23.362;2023-03-20T08:06:50;153439.50;;;9.24;58.11
10127;BME280;13080;42.608;23.362;2023-03-20T08:09:17;153413.53;;;9.14;57.35
10127;BME280;13080;42.608;23.362;2023-03-20T08:11:45;153414.81;;;9.14;58.97
10127;BME280;13080;42.608;23.362;2023-03-20T08:14:12;153452.47;;;9.29;57.66
10127;BME280;13080;42.608;23.362;2023-03-20T08:16:38;153453.75;;;9.30;58.38
10127;BME280;13080;42.608;23.362;2023-03-20T08:19:05;153455.03;;;9.30;58.26
10127;BME280;13080;42.608;23.362;2023-03-20T08:21:32;153491.41;;;9.45;54.60
10127;BME280;13080;42.608;23.362;2023-03-20T08:23:59;153497.88;;;9.47;57.35
10127;BME280;13080;42.608;23.362;2023-03-20T08:26:26;153497.88;;;9.47;56.68
10127;BME280;13080;42.608;23.362;2023-03-20T08:28:54;153529.06;;;9.60;56.62
10127;BME280;13080;42.608;23.362;2023-03-20T08:31:21;153575.78;;;9.78;55.13
10127;BME280;13080;42.608;23.362;2023-03-20T08:33:47;153544.59;;;9.66;54.61
10127;BME280;13080;42.608;23.362;2023-03-20T08:36:15;153561.47;;;9.72;56.19
10127;BME280;13080;42.608;23.362;2023-03-20T08:38:44;153575.78;;;9.78;55.99
10127;BME280;13080;42.608;23.362;2023-03-20T08:41:11;153601.69;;;9.88;56.06
10127;BME280;13080;42.608;23.362;2023-03-20T08:43:38;153634.16;;;10.01;55.68
10127;BME280;13080;42.608;23.362;2023-03-20T08:46:07;153695.22;;;10.25;55.02
10127;BME280;13080;42.608;23.362;2023-03-20T08:48:34;153709.50;;;10.31;55.19
10127;BME280;13080;42.608;23.362;2023-03-20T08:51:00;153731.59;;;10.39;55.79
10127;BME280;13080;42.608;23.362;2023-03-20T08:53:27;153726.41;;;10.37;55.84
10127;BME280;13080;42.608;23.362;2023-03-20T08:55:54;153719.91;;;10.35;54.86
10127;BME280;13080;42.608;23.362;2023-03-20T08:58:22;153742.00;;;10.44;54.94
10127;BME280;13080;42.608;23.362;2023-03-20T09:00:48;153766.66;;;10.53;55.64
10127;BME280;13080;42.608;23.362;2023-03-20T09:03:18;153801.72;;;10.67;54.27
10127;BME280;13080;42.608;23.362;2023-03-20T09:05:46;153838.09;;;10.81;54.36
10127;BME280;13080;42.608;23.362;2023-03-20T09:08:14;153842.03;;;10.83;54.48
10127;BME280;13080;42.608;23.362;2023-03-20T09:10:41;153870.59;;;10.94;54.40
10127;BME280;13080;42.608;23.362;2023-03-20T09:13:07;153903.03;;;11.07;54.88
10127;BME280;13080;42.608;23.362;2023-03-20T09:15:35;153913.44;;;11.11;54.41
10127;BME280;13080;42.608;23.362;2023-03-20T09:18:01;153908.25;;;11.09;53.69
10127;BME280;13080;42.608;23.362;2023-03-20T09:20:30;153900.47;;;11.06;53.31
10127;BME280;13080;42.608;23.362;2023-03-20T09:22:57;153852.38;;;10.87;54.14
10127;BME280;13080;42.608;23.362;2023-03-20T09:25:23;153871.88;;;10.95;55.01
10127;BME280;13080;42.608;23.362;2023-03-20T09:27:50;153900.47;;;11.06;54.75
10127;BME280;13080;42.608;23.362;2023-03-20T09:30:20;153932.97;;;11.19;53.16
10127;BME280;13080;42.608;23.362;2023-03-20T09:32:47;153940.75;;;11.22;53.35
10127;BME280;13080;42.608;23.362;2023-03-20T09:35:14;153991.44;;;11.42;53.44
10127;BME280;13080;42.608;23.362;2023-03-20T09:37:43;153979.72;;;11.37;53.84
10127;BME280;13080;42.608;23.362;2023-03-20T09:40:19;154001.84;;;11.46;53.32
10127;BME280;13080;42.608;23.362;2023-03-20T09:42:52;154030.44;;;11.57;53.54
10127;BME280;13080;42.608;23.362;2023-03-20T09:45:36;154065.50;;;11.71;54.19
10127;BME280;13080;42.608;23.362;2023-03-20T09:48:12;154113.63;;;11.90;51.60
10127;BME280;13080;42.608;23.362;2023-03-20T09:50:45;154117.56;;;11.92;51.79
10127;BME280;13080;42.608;23.362;2023-03-20T09:53:21;154114.97;;;11.91;53.13
10127;BME280;13080;42.608;23.362;2023-03-20T09:55:52;154157.84;;;12.07;50.99
10127;BME280;13080;42.608;23.362;2023-03-20T09:58:22;154174.75;;;12.14;50.61
10127;BME280;13080;42.608;23.362;2023-03-20T10:00:50;154200.78;;;12.24;51.45
10127;BME280;13080;42.608;23.362;2023-03-20T10:03:20;154233.25;;;12.37;51.47
10127;BME280;13080;42.608;23.362;2023-03-20T10:05:55;154276.22;;;12.54;51.01
10127;BME280;13080;42.608;23.362;2023-03-20T10:08:27;154312.59;;;12.68;48.60
10127;BME280;13080;42.608;23.362;2023-03-20T10:11:03;154363.34;;;12.88;48.50
10127;BME280;13080;42.608;23.362;2023-03-20T10:13:47;154412.81;;;13.08;48.29
10127;BME280;13080;42.608;23.362;2023-03-20T10:16:25;154441.44;;;13.19;47.06
10127;BME280;13080;42.608;23.362;2023-03-20T10:19:02;154432.31;;;13.16;46.53
10127;BME280;13080;42.608;23.362;2023-03-20T10:21:37;154416.72;;;13.09;47.73
10127;BME280;13080;42.608;23.362;2023-03-20T10:24:14;154432.31;;;13.16;47.87
10127;BME280;13080;42.608;23.362;2023-03-20T10:26:46;154457.06;;;13.25;47.38
10127;BME280;13080;42.608;23.362;2023-03-20T10:29:21;154496.16;;;13.41;47.52
10127;BME280;13080;42.608;23.362;2023-03-20T10:31:57;154502.66;;;13.43;46.20
10127;BME280;13080;42.608;23.362;2023-03-20T10:34:37;154519.59;;;13.50;45.56
10127;BME280;13080;42.608;23.362;2023-03-20T10:37:18;154535.16;;;13.56;45.43
10127;BME280;13080;42.608;23.362;2023-03-20T10:39:59;154523.44;;;13.51;44.89
10127;BME280;13080;42.608;23.362;2023-03-20T10:42:33;154531.28;;;13.55;46.53
10127;BME280;13080;42.608;23.362;2023-03-20T10:45:06;154565.13;;;13.68;44.58
10127;BME280;13080;42.608;23.362;2023-03-20T10:47:39;154618.50;;;13.89;44.83
10127;BME280;13080;42.608;23.362;2023-03-20T10:50:13;154606.78;;;13.84;45.32
10127;BME280;13080;42.608;23.362;2023-03-20T10:52:41;154599.00;;;13.81;44.50
10127;BME280;13080;42.608;23.362;2023-03-20T10:55:14;154618.50;;;13.89;44.32
10127;BME280;13080;42.608;23.362;2023-03-20T10:57:46;154622.41;;;13.90;45.14
10127;BME280;13080;42.608;23.362;2023-03-20T11:00:17;154639.34;;;13.97;45.59
10127;BME280;13080;42.608;23.362;2023-03-20T11:02:46;154726.56;;;14.31;43.34
10127;BME280;13080;42.608;23.362;2023-03-20T11:05:21;154729.16;;;14.32;43.25
10127;BME280;13080;42.608;23.362;2023-03-20T11:07:50;154724.00;;;14.30;42.38
10127;BME280;13080;42.608;23.362;2023-03-20T11:10:27;154708.34;;;14.24;42.45
10127;BME280;13080;42.608;23.362;2023-03-20T11:12:53;154720.06;;;14.29;41.75
10127;BME280;13080;42.608;23.362;2023-03-20T11:15:22;154703.13;;;14.22;41.55
10127;BME280;13080;42.608;23.362;2023-03-20T11:17:51;154730.50;;;14.33;41.09
10127;BME280;13080;42.608;23.362;2023-03-20T11:20:18;154752.66;;;14.42;41.71
10127;BME280;13080;42.608;23.362;2023-03-20T11:22:46;154799.56;;;14.60;40.19
10127;BME280;13080;42.608;23.362;2023-03-20T11:25:23;154830.81;;;14.72;39.95
10127;BME280;13080;42.608;23.362;2023-03-20T11:27:53;154856.88;;;14.83;40.29
10127;BME280;13080;42.608;23.362;2023-03-20T11:30:20;154916.81;;;15.06;38.79
10127;BME280;13080;42.608;23.362;2023-03-20T11:32:48;154924.66;;;15.09;39.55
10127;BME280;13080;42.608;23.362;2023-03-20T11:35:20;154905.09;;;15.02;40.47
10127;BME280;13080;42.608;23.362;2023-03-20T11:37:49;154920.72;;;15.08;40.18
10127;BME280;13080;42.608;23.362;2023-03-20T11:40:22;154965.03;;;15.25;40.59
10127;BME280;13080;42.608;23.362;2023-03-20T11:42:56;154991.09;;;15.35;38.75
10127;BME280;13080;42.608;23.362;2023-03-20T11:45:23;154984.56;;;15.33;38.52
10127;BME280;13080;42.608;23.362;2023-03-20T11:47:53;154991.09;;;15.35;38.99
10127;BME280;13080;42.608;23.362;2023-03-20T11:50:25;155009.38;;;15.43;38.90
10127;BME280;13080;42.608;23.362;2023-03-20T11:52:52;155026.31;;;15.49;37.89
10127;BME280;13080;42.608;23.362;2023-03-20T11:55:25;155022.38;;;15.48;38.01
10127;BME280;13080;42.608;23.362;2023-03-20T11:57:57;155024.97;;;15.49;38.02
10127;BME280;13080;42.608;23.362;2023-03-20T12:00:25;155061.50;;;15.63;39.62
10127;BME280;13080;42.608;23.362;2023-03-20T12:02:53;155094.09;;;15.76;37.15
10127;BME280;13080;42.608;23.362;2023-03-20T12:05:29;155134.53;;;15.92;37.34
10127;BME280;13080;42.608;23.362;2023-03-20T12:07:58;155094.09;;;15.76;37.39
10127;BME280;13080;42.608;23.362;2023-03-20T12:10:31;155100.66;;;15.78;39.28
10127;BME280;13080;42.608;23.362;2023-03-20T12:13:02;155113.69;;;15.84;37.14
10127;BME280;13080;42.608;23.362;2023-03-20T12:15:33;155121.50;;;15.87;36.82
10127;BME280;13080;42.608;23.362;2023-03-20T12:18:04;155131.94;;;15.91;36.92
10127;BME280;13080;42.608;23.362;2023-03-20T12:20:35;155131.94;;;15.91;37.50
10127;BME280;13080;42.608;23.362;2023-03-20T12:23:11;155138.44;;;15.93;37.32
10127;BME280;13080;42.608;23.362;2023-03-20T12:25:43;155137.16;;;15.93;38.35
10127;BME280;13080;42.608;23.362;2023-03-20T12:28:19;155180.16;;;16.10;37.63
10127;BME280;13080;42.608;23.362;2023-03-20T12:30:57;155202.31;;;16.18;36.75
10127;BME280;13080;42.608;23.362;2023-03-20T12:33:37;155203.69;;;16.19;37.26
10127;BME280;13080;42.608;23.362;2023-03-20T12:36:12;155198.44;;;16.17;37.54
10127;BME280;13080;42.608;23.362;2023-03-20T12:38:40;155210.19;;;16.21;36.78
10127;BME280;13080;42.608;23.362;2023-03-20T12:41:11;155233.66;;;16.31;36.79
10127;BME280;13080;42.608;23.362;2023-03-20T12:43:55;155262.34;;;16.42;36.00
10127;BME280;13080;42.608;23.362;2023-03-20T12:46:33;155297.56;;;16.56;36.29
10127;BME280;13080;42.608;23.362;2023-03-20T12:49:10;155298.84;;;16.56;35.67
10127;BME280;13080;42.608;23.362;2023-03-20T12:51:53;155278.00;;;16.48;35.18
10127;BME280;13080;42.608;23.362;2023-03-20T12:54:36;155279.31;;;16.49;35.85
10127;BME280;13080;42.608;23.362;2023-03-20T12:57:13;155285.81;;;16.51;35.35
10127;BME280;13080;42.608;23.362;2023-03-20T12:59:52;155283.22;;;16.50;36.51
10127;BME280;13080;42.608;23.362;2023-03-20T13:02:33;155311.94;;;16.61;36.05
10127;BME280;13080;42.608;23.362;2023-03-20T13:05:19;155323.66;;;16.66;35.64
10127;BME280;13080;42.608;23.362;2023-03-20T13:08:01;155327.53;;;16.68;36.16
10127;BME280;13080;42.608;23.362;2023-03-20T13:10:31;155345.84;;;16.75;36.00